Time;durP1;ratioP1;P1;durP2;ratioP2;P2;SDS_P1;SDS_P2;PMS_P1;PMS_P2;Temp;Humidity;BMP_temperature;BMP_pressure;BME280_temperature;BME280_humidity;BME280_pressure;Samples;Min_cycle;Max_cycle;Signal;HPM_P1;HPM_P2
2022/06/05 00:00:21;;;;;;;6.32;4.10;;;24.40;53.00;;;;;;5121548;28;20079;-43
2022/06/05 00:03:09;;;;;;;5.90;4.00;;;24.40;53.20;;;;;;5122107;28;20398;-47
2022/06/05 00:05:43;;;;;;;5.55;4.20;;;24.40;53.40;;;;;;5113344;28;20039;-46
2022/06/05 00:08:14;;;;;;;4.07;3.67;;;24.40;53.40;;;;;;5122140;28;20059;-42
2022/06/05 00:10:57;;;;;;;6.13;4.35;;;24.40;53.00;;;;;;5121115;28;20039;-42
2022/06/05 00:13:44;;;;;;;6.18;3.80;;;24.40;53.30;;;;;;5121459;28;20489;-44
2022/06/05 00:16:10;;;;;;;5.03;4.32;;;24.40;53.60;;;;;;5121001;28;20024;-42
2022/06/05 00:18:39;;;;;;;5.05;4.15;;;24.40;53.80;;;;;;5120668;28;20035;-43
2022/06/05 00:21:06;;;;;;;4.95;4.15;;;24.40;53.80;;;;;;5120167;28;20012;-43
2022/06/05 00:23:32;;;;;;;5.47;4.10;;;24.40;53.80;;;;;;5118881;28;20059;-45
2022/06/05 00:25:57;;;;;;;6.05;4.00;;;24.40;54.00;;;;;;5118406;27;20137;-42
2022/06/05 00:28:53;;;;;;;4.65;4.13;;;24.40;53.70;;;;;;5118230;28;20059;-42
2022/06/05 00:31:42;;;;;;;4.47;4.05;;;24.30;54.00;;;;;;5118638;28;20028;-43
2022/06/05 00:34:08;;;;;;;5.85;4.15;;;24.40;54.20;;;;;;5117292;28;20051;-42
2022/06/05 00:36:42;;;;;;;4.65;4.10;;;24.40;54.50;;;;;;5118515;28;20492;-42
2022/06/05 00:39:18;;;;;;;4.50;4.10;;;24.30;54.70;;;;;;5118727;28;20038;-43
2022/06/05 00:41:58;;;;;;;5.50;4.45;;;24.30;54.70;;;;;;5118361;28;20065;-43
2022/06/05 00:44:32;;;;;;;6.43;4.10;;;24.30;54.70;;;;;;5117709;28;20015;-42
2022/06/05 00:46:59;;;;;;;6.35;4.40;;;24.30;54.90;;;;;;5117929;28;20038;-41
2022/06/05 00:49:34;;;;;;;5.13;4.20;;;24.30;54.90;;;;;;5099741;28;20012;-41
2022/06/05 00:52:00;;;;;;;4.95;4.50;;;24.30;55.00;;;;;;5115826;28;20022;-43
2022/06/05 00:54:27;;;;;;;7.20;4.90;;;24.30;55.20;;;;;;5117789;28;20012;-47
2022/06/05 00:56:52;;;;;;;5.25;4.60;;;24.30;55.00;;;;;;5115837;28;20466;-42
2022/06/05 00:59:18;;;;;;;5.38;4.10;;;24.30;55.30;;;;;;5117501;28;20026;-42
2022/06/05 01:01:44;;;;;;;5.65;4.47;;;24.30;55.30;;;;;;5116377;28;20018;-44
2022/06/05 01:04:10;;;;;;;5.13;4.30;;;24.30;55.50;;;;;;5117284;28;20416;-41
2022/06/05 01:06:35;;;;;;;4.63;4.20;;;24.30;55.30;;;;;;5098407;28;20018;-41
2022/06/05 01:09:01;;;;;;;4.40;4.00;;;24.30;55.10;;;;;;5120538;28;20098;-42
2022/06/05 01:11:50;;;;;;;6.40;4.35;;;24.30;55.20;;;;;;5105235;28;20012;-46
2022/06/05 01:14:27;;;;;;;5.93;4.28;;;24.20;55.30;;;;;;5122017;28;20020;-44
2022/06/05 01:17:15;;;;;;;5.50;4.30;;;24.30;55.10;;;;;;5120363;27;20015;-47
2022/06/05 01:20:07;;;;;;;5.50;4.30;;;24.30;55.40;;;;;;5119167;28;20012;-48
2022/06/05 01:22:55;;;;;;;5.10;4.60;;;24.30;55.10;;;;;;5119781;28;20042;-46
2022/06/05 01:25:34;;;;;;;7.63;4.60;;;24.30;55.00;;;;;;5121373;28;20023;-44
2022/06/05 01:28:04;;;;;;;4.60;4.10;;;24.20;54.80;;;;;;5121571;28;20023;-47
2022/06/05 01:30:31;;;;;;;5.50;4.93;;;24.20;55.20;;;;;;5121018;28;20011;-50
2022/06/05 01:33:11;;;;;;;4.97;4.20;;;24.30;55.40;;;;;;5120216;28;20008;-42
2022/06/05 01:35:44;;;;;;;4.72;4.15;;;24.30;55.00;;;;;;5121409;28;20008;-49
2022/06/05 01:38:17;;;;;;;4.75;3.92;;;24.30;54.60;;;;;;5121947;28;20020;-49
2022/06/05 01:40:46;;;;;;;4.65;4.13;;;24.20;54.70;;;;;;5119310;28;20035;-41
2022/06/05 01:43:32;;;;;;;4.90;4.13;;;24.30;55.10;;;;;;5103360;28;20042;-42
2022/06/05 01:46:10;;;;;;;7.03;4.50;;;24.30;55.00;;;;;;5120900;28;20028;-42
2022/06/05 01:48:44;;;;;;;4.85;4.35;;;24.30;54.70;;;;;;5118752;28;20059;-44
2022/06/05 01:51:19;;;;;;;5.55;4.60;;;24.30;55.20;;;;;;5121069;28;20007;-42
2022/06/05 01:53:46;;;;;;;4.53;4.13;;;24.20;55.10;;;;;;5123577;28;20490;-44
2022/06/05 01:56:39;;;;;;;5.25;4.60;;;24.30;55.10;;;;;;5121670;28;20087;-44
2022/06/05 01:59:30;;;;;;;4.65;4.15;;;24.20;55.10;;;;;;5110315;28;20043;-46
2022/06/05 02:01:57;;;;;;;4.72;4.32;;;24.20;55.50;;;;;;5117482;28;20381;-42
2022/06/05 02:04:43;;;;;;;4.80;4.32;;;24.20;55.50;;;;;;5101627;28;20019;-45
2022/06/05 02:07:17;;;;;;;5.82;4.47;;;24.20;55.50;;;;;;5102811;28;20035;-42
2022/06/05 02:10:15;;;;;;;5.68;4.45;;;24.20;55.90;;;;;;5119627;28;20531;-42
2022/06/05 02:12:41;;;;;;;4.70;4.30;;;24.20;55.40;;;;;;5112414;28;20019;-45
2022/06/05 02:15:07;;;;;;;4.93;4.38;;;24.20;55.60;;;;;;5118468;28;20054;-40
2022/06/05 02:17:33;;;;;;;4.82;4.32;;;24.20;55.70;;;;;;5115493;28;20019;-40
2022/06/05 02:19:59;;;;;;;6.10;4.50;;;24.20;55.40;;;;;;5115154;28;20024;-41
2022/06/05 02:22:28;;;;;;;5.22;4.38;;;24.10;55.50;;;;;;5115128;28;20169;-46
2022/06/05 02:24:54;;;;;;;4.97;4.47;;;24.20;55.60;;;;;;5117858;28;20015;-42
2022/06/05 02:27:22;;;;;;;6.15;4.68;;;24.10;55.70;;;;;;5117346;28;20555;-45
2022/06/05 02:29:48;;;;;;;5.43;4.50;;;24.10;55.60;;;;;;5118974;28;20068;-44
2022/06/05 02:32:53;;;;;;;5.20;4.70;;;24.10;55.70;;;;;;5116426;28;20008;-43
2022/06/05 02:35:29;;;;;;;4.95;4.45;;;24.10;55.70;;;;;;5117410;28;20104;-41
2022/06/05 02:38:06;;;;;;;5.57;4.72;;;24.10;55.90;;;;;;5119269;28;20090;-42
2022/06/05 02:40:38;;;;;;;5.50;4.70;;;24.10;55.90;;;;;;5118355;28;20022;-47
2022/06/05 02:43:19;;;;;;;5.60;4.95;;;24.10;55.90;;;;;;5117664;28;20015;-47
2022/06/05 02:45:51;;;;;;;6.88;4.80;;;24.10;56.60;;;;;;5118106;28;20026;-43
2022/06/05 02:48:24;;;;;;;5.05;4.53;;;24.10;56.00;;;;;;5117348;28;20024;-41
2022/06/05 02:50:54;;;;;;;5.00;4.50;;;24.00;56.10;;;;;;5114066;28;20062;-43
2022/06/05 02:53:20;;;;;;;5.68;4.78;;;24.10;56.20;;;;;;5115847;28;20091;-44
2022/06/05 02:55:45;;;;;;;5.47;4.88;;;24.00;56.20;;;;;;5114996;28;20426;-43
2022/06/05 02:58:12;;;;;;;5.70;5.07;;;24.00;56.30;;;;;;5115091;28;20410;-40
2022/06/05 03:00:38;;;;;;;5.85;4.80;;;23.90;56.30;;;;;;5115565;28;20023;-40
2022/06/05 03:05:49;;;;;;;5.32;4.82;;;24.00;56.40;;;;;;5100990;28;20172;-43
2022/06/05 03:08:16;;;;;;;5.40;4.90;;;24.00;56.30;;;;;;5116017;28;20056;-38
2022/06/05 03:10:42;;;;;;;6.95;4.90;;;23.90;56.20;;;;;;5115686;28;20016;-38
2022/06/05 03:13:08;;;;;;;5.30;4.80;;;23.90;56.30;;;;;;5115079;28;20497;-39
2022/06/05 03:15:34;;;;;;;6.10;4.63;;;23.90;56.40;;;;;;5116078;28;20018;-42
2022/06/05 03:17:59;;;;;;;5.68;4.88;;;23.80;56.50;;;;;;5117342;28;20032;-42
2022/06/05 03:20:25;;;;;;;6.13;4.70;;;23.80;56.50;;;;;;5118705;28;20012;-41
2022/06/05 03:22:51;;;;;;;6.50;4.60;;;23.80;56.60;;;;;;5118330;28;20413;-42
2022/06/05 03:25:20;;;;;;;5.35;4.85;;;23.80;56.60;;;;;;5117704;28;20049;-42
2022/06/05 03:27:45;;;;;;;5.13;4.60;;;23.80;56.60;;;;;;5116794;28;20057;-41
2022/06/05 03:30:12;;;;;;;6.65;5.35;;;23.80;56.50;;;;;;5114577;28;20016;-39
2022/06/05 03:32:38;;;;;;;5.35;4.85;;;23.90;56.50;;;;;;5115257;28;20474;-45
2022/06/05 03:35:05;;;;;;;5.10;4.60;;;23.80;56.30;;;;;;5115138;28;20020;-40
2022/06/05 03:37:31;;;;;;;5.78;4.88;;;23.80;56.30;;;;;;5115449;28;20382;-39
2022/06/05 03:39:57;;;;;;;5.93;5.28;;;23.80;56.30;;;;;;5114113;28;20020;-39
2022/06/05 03:42:24;;;;;;;6.10;4.80;;;23.80;56.30;;;;;;5114367;28;20027;-39
2022/06/05 03:44:50;;;;;;;5.75;4.90;;;23.80;56.40;;;;;;5114331;28;20011;-39
2022/06/05 03:47:15;;;;;;;5.28;4.75;;;23.80;56.40;;;;;;5096264;28;20046;-39
2022/06/05 03:49:41;;;;;;;8.65;5.20;;;23.80;56.40;;;;;;5112978;28;20031;-39
2022/06/05 03:52:07;;;;;;;5.55;4.95;;;23.80;56.30;;;;;;5114673;28;20085;-39
2022/06/05 03:54:38;;;;;;;6.10;4.40;;;23.80;56.40;;;;;;5117072;28;20458;-42
2022/06/05 03:57:05;;;;;;;5.93;4.50;;;23.80;56.70;;;;;;5119350;28;20064;-40
2022/06/05 03:59:32;;;;;;;6.60;5.15;;;23.80;56.10;;;;;;5120243;28;20020;-40
2022/06/05 04:01:58;;;;;;;6.18;4.43;;;23.80;56.20;;;;;;5120493;28;20027;-43
2022/06/05 04:04:24;;;;;;;7.35;4.53;;;23.80;56.10;;;;;;5100826;28;20020;-44
2022/06/05 04:06:50;;;;;;;6.25;4.50;;;23.80;56.00;;;;;;5117912;28;20436;-43
2022/06/05 04:09:17;;;;;;;5.15;4.63;;;23.80;55.90;;;;;;5118911;28;20016;-39
2022/06/05 04:11:42;;;;;;;5.93;4.78;;;23.80;56.00;;;;;;5117172;28;20007;-39
2022/06/05 04:14:08;;;;;;;7.05;4.80;;;23.80;55.90;;;;;;5114444;28;20027;-38
2022/06/05 04:16:35;;;;;;;4.90;4.40;;;23.90;56.00;;;;;;5114561;28;20039;-41
2022/06/05 04:19:02;;;;;;;5.28;4.72;;;23.80;56.00;;;;;;5114370;28;20011;-38
2022/06/05 04:21:30;;;;;;;4.70;4.30;;;23.80;56.00;;;;;;5114143;28;20031;-42
2022/06/05 04:23:55;;;;;;;5.20;4.70;;;23.80;56.00;;;;;;5114630;28;20083;-39
2022/06/05 04:26:27;;;;;;;6.03;4.68;;;23.80;56.00;;;;;;5120819;28;20016;-41
2022/06/05 04:28:54;;;;;;;6.03;4.63;;;23.80;56.00;;;;;;5121041;28;20012;-40
2022/06/05 04:31:21;;;;;;;8.35;5.43;;;23.80;56.00;;;;;;5119426;28;20031;-39
2022/06/05 04:33:50;;;;;;;7.45;5.45;;;23.80;56.10;;;;;;5121391;28;20014;-41
2022/06/05 04:36:16;;;;;;;5.27;4.37;;;23.80;56.10;;;;;;5121428;28;20026;-43
2022/06/05 04:38:41;;;;;;;5.03;4.40;;;23.80;56.00;;;;;;5121038;28;20257;-41
2022/06/05 04:41:08;;;;;;;4.95;4.50;;;23.80;56.00;;;;;;5121611;28;20023;-42
2022/06/05 04:43:34;;;;;;;5.30;4.43;;;23.80;55.90;;;;;;5121048;28;20386;-44
2022/06/05 04:46:00;;;;;;;5.22;4.68;;;23.80;55.90;;;;;;5120520;28;20106;-40
2022/06/05 04:48:26;;;;;;;5.20;4.65;;;23.80;55.90;;;;;;5120903;28;20081;-40
2022/06/05 04:50:52;;;;;;;5.47;4.82;;;23.80;55.90;;;;;;5122179;28;20085;-44
2022/06/05 04:53:19;;;;;;;5.60;4.75;;;23.80;55.90;;;;;;5119809;28;20031;-39
2022/06/05 04:55:44;;;;;;;5.43;4.82;;;23.80;55.80;;;;;;5117851;28;20026;-39
2022/06/05 04:58:10;;;;;;;5.35;4.80;;;23.80;56.40;;;;;;5119507;28;20019;-44
2022/06/05 05:00:36;;;;;;;5.70;4.82;;;23.80;55.80;;;;;;5117211;28;20106;-40
2022/06/05 05:03:02;;;;;;;6.03;4.90;;;23.80;55.80;;;;;;5118946;28;20518;-41
2022/06/05 05:05:28;;;;;;;5.35;4.63;;;23.80;55.80;;;;;;5100106;28;20101;-40
2022/06/05 05:07:54;;;;;;;4.97;4.50;;;23.80;55.80;;;;;;5116738;28;20036;-42
2022/06/05 05:10:20;;;;;;;5.63;5.03;;;23.80;55.80;;;;;;5117910;28;20004;-38
2022/06/05 05:12:47;;;;;;;5.88;4.50;;;23.80;55.70;;;;;;5117484;28;20032;-38
2022/06/05 05:15:12;;;;;;;6.15;5.07;;;23.80;55.80;;;;;;5119540;28;20008;-42
2022/06/05 05:17:39;;;;;;;7.93;4.80;;;23.80;55.70;;;;;;5120275;28;20031;-43
2022/06/05 05:20:05;;;;;;;5.70;5.03;;;23.80;55.60;;;;;;5120226;28;20023;-40
2022/06/05 05:22:37;;;;;;;6.93;5.05;;;23.80;55.60;;;;;;5121088;28;20058;-41
2022/06/05 05:25:07;;;;;;;6.85;5.05;;;23.80;55.60;;;;;;5121543;28;20068;-42
2022/06/05 05:27:33;;;;;;;4.95;4.43;;;23.80;55.60;;;;;;5123093;28;20027;-45
2022/06/05 05:29:58;;;;;;;5.82;4.80;;;23.80;55.70;;;;;;5122983;28;20015;-40
2022/06/05 05:32:25;;;;;;;5.35;4.75;;;23.80;55.60;;;;;;5121556;28;20027;-39
2022/06/05 05:34:51;;;;;;;5.95;4.65;;;23.80;55.60;;;;;;5121291;28;20019;-43
2022/06/05 05:37:17;;;;;;;6.88;4.80;;;23.80;55.70;;;;;;5119045;28;20020;-44
2022/06/05 05:42:30;;;;;;;6.68;5.00;;;23.80;55.60;;;;;;5118030;28;20027;-39
2022/06/05 05:44:56;;;;;;;5.20;4.70;;;23.80;55.60;;;;;;5119664;27;20045;-39
2022/06/05 05:47:24;;;;;;;5.70;4.90;;;23.80;55.60;;;;;;5117646;28;20023;-42
2022/06/05 05:49:54;;;;;;;4.93;4.43;;;23.80;56.00;;;;;;5118252;28;20467;-39
2022/06/05 05:52:20;;;;;;;5.18;4.30;;;23.80;55.50;;;;;;5117175;28;20008;-41
2022/06/05 05:54:45;;;;;;;4.80;4.40;;;23.80;55.50;;;;;;5118441;28;20474;-40
2022/06/05 05:57:11;;;;;;;5.13;4.63;;;23.80;55.40;;;;;;5116857;28;20042;-39
2022/06/05 05:59:37;;;;;;;7.88;5.10;;;23.80;55.40;;;;;;5117495;28;20062;-43
2022/06/05 06:02:03;;;;;;;5.35;4.57;;;23.80;55.30;;;;;;5117497;28;20386;-43
2022/06/05 06:04:29;;;;;;;6.15;4.80;;;23.80;55.30;;;;;;5117364;28;20023;-39
2022/06/05 06:06:57;;;;;;;6.35;4.88;;;23.80;55.30;;;;;;5115902;28;20019;-41
2022/06/05 06:09:23;;;;;;;5.65;4.72;;;23.90;55.30;;;;;;5116667;28;20080;-38
2022/06/05 06:11:49;;;;;;;4.68;4.28;;;23.80;55.00;;;;;;5114589;28;20011;-40
2022/06/05 06:14:15;;;;;;;6.07;4.55;;;23.90;54.80;;;;;;5115803;28;20020;-41
2022/06/05 06:16:41;;;;;;;5.35;4.25;;;23.90;54.60;;;;;;5116763;28;20037;-41
2022/06/05 06:19:07;;;;;;;5.53;4.13;;;23.90;54.50;;;;;;5098328;28;20023;-38
2022/06/05 06:21:33;;;;;;;6.55;4.68;;;23.90;54.60;;;;;;5116196;28;20020;-38
2022/06/05 06:23:59;;;;;;;4.60;4.13;;;23.90;54.40;;;;;;5114830;28;20528;-41
2022/06/05 06:26:25;;;;;;;5.88;4.15;;;23.90;54.10;;;;;;5117512;28;20114;-40
2022/06/05 06:28:51;;;;;;;6.15;4.50;;;23.90;54.20;;;;;;5117565;28;20030;-39
2022/06/05 06:31:17;;;;;;;6.30;4.30;;;24.00;53.90;;;;;;5117711;28;20035;-40
2022/06/05 06:33:43;;;;;;;6.53;4.13;;;24.00;53.90;;;;;;5117485;28;20015;-38
2022/06/05 06:36:12;;;;;;;4.78;4.10;;;24.00;53.50;;;;;;5117093;28;20068;-40
2022/06/05 06:38:40;;;;;;;7.28;4.25;;;24.00;53.60;;;;;;5117195;28;20024;-42
2022/06/05 06:41:16;;;;;;;4.47;4.07;;;24.10;53.50;;;;;;5115791;28;20500;-38
2022/06/05 06:43:43;;;;;;;4.22;3.83;;;24.10;53.60;;;;;;5117206;28;20076;-39
2022/06/05 06:46:09;;;;;;;4.95;4.13;;;24.10;53.70;;;;;;5115174;28;20031;-40
2022/06/05 06:48:36;;;;;;;4.70;4.13;;;24.10;53.70;;;;;;5115344;28;20040;-40
2022/06/05 06:51:02;;;;;;;3.65;3.35;;;24.10;53.60;;;;;;5116146;28;20008;-41
2022/06/05 06:53:28;;;;;;;4.95;4.55;;;24.10;53.40;;;;;;5116576;28;20016;-40
2022/06/05 06:55:54;;;;;;;4.88;4.03;;;24.20;53.60;;;;;;5117913;28;20382;-40
2022/06/05 06:58:20;;;;;;;4.10;3.80;;;24.20;53.50;;;;;;5117504;28;20007;-39
2022/06/05 07:00:46;;;;;;;4.57;3.88;;;24.20;53.20;;;;;;5115320;28;20024;-39
2022/06/05 07:03:11;;;;;;;4.93;4.30;;;24.40;52.60;;;;;;5116484;28;20693;-39
2022/06/05 07:05:37;;;;;;;4.43;4.03;;;24.60;52.20;;;;;;5115357;28;20173;-45
2022/06/05 07:08:03;;;;;;;4.85;3.97;;;24.80;51.70;;;;;;5098258;28;20036;-42
2022/06/05 07:10:29;;;;;;;5.45;4.25;;;24.90;51.10;;;;;;5117252;28;20011;-45
2022/06/05 07:12:57;;;;;;;4.93;3.72;;;25.10;50.60;;;;;;5117186;28;20011;-42
2022/06/05 07:15:23;;;;;;;4.15;3.70;;;25.20;50.20;;;;;;5100033;28;20082;-40
2022/06/05 07:17:49;;;;;;;5.57;4.20;;;25.30;49.90;;;;;;5116595;28;20016;-42
2022/06/05 07:20:15;;;;;;;4.85;3.65;;;25.40;49.70;;;;;;5118266;28;20458;-42
2022/06/05 07:22:41;;;;;;;4.68;3.72;;;25.50;49.60;;;;;;5115454;28;20051;-39
2022/06/05 07:25:07;;;;;;;4.15;3.67;;;25.60;49.20;;;;;;5115554;28;20521;-39
2022/06/05 07:27:33;;;;;;;4.70;4.20;;;25.70;49.10;;;;;;5116782;28;20047;-42
2022/06/05 07:30:00;;;;;;;4.18;3.78;;;25.80;48.90;;;;;;5115216;28;20564;-40
2022/06/05 07:32:25;;;;;;;5.22;3.72;;;25.80;48.50;;;;;;5116127;28;20019;-40
2022/06/05 07:34:51;;;;;;;7.65;4.03;;;25.90;48.30;;;;;;5116939;28;20091;-42
2022/06/05 07:37:18;;;;;;;3.95;3.65;;;26.00;48.10;;;;;;5116803;28;20042;-39
2022/06/05 07:39:44;;;;;;;4.18;3.63;;;26.00;47.90;;;;;;5114057;28;20020;-38
2022/06/05 07:42:11;;;;;;;4.18;3.80;;;26.00;47.90;;;;;;5113520;28;20050;-39
2022/06/05 07:44:37;;;;;;;4.55;3.42;;;26.00;47.90;;;;;;5115087;28;20020;-39
2022/06/05 07:47:04;;;;;;;4.18;3.65;;;26.00;47.80;;;;;;5115237;28;20024;-39
2022/06/05 07:49:30;;;;;;;3.75;3.40;;;26.10;47.70;;;;;;5113707;28;20065;-41
2022/06/05 07:54:40;;;;;;;4.13;3.78;;;26.20;47.40;;;;;;5115743;28;20027;-40
2022/06/05 07:57:08;;;;;;;5.18;3.80;;;26.20;47.10;;;;;;5115161;28;20012;-39
2022/06/05 07:59:39;;;;;;;3.72;3.30;;;26.30;47.10;;;;;;5115036;28;20382;-38
2022/06/05 08:02:08;;;;;;;4.78;3.70;;;26.30;46.90;;;;;;5119198;28;20034;-39
2022/06/05 08:04:34;;;;;;;3.78;3.47;;;26.30;46.90;;;;;;5119316;28;20015;-39
2022/06/05 08:07:00;;;;;;;4.10;3.70;;;26.30;47.00;;;;;;5118729;28;20462;-40
2022/06/05 08:09:26;;;;;;;4.10;3.65;;;26.30;47.10;;;;;;5119657;28;20020;-40
2022/06/05 08:11:52;;;;;;;4.20;3.80;;;26.30;47.00;;;;;;5119717;28;20012;-39
2022/06/05 08:14:18;;;;;;;4.50;4.07;;;26.30;46.90;;;;;;5118957;28;20527;-39
2022/06/05 08:16:44;;;;;;;4.15;3.70;;;26.40;46.90;;;;;;5119267;28;20004;-40
2022/06/05 08:19:15;;;;;;;4.35;3.95;;;26.40;46.80;;;;;;5119614;28;20012;-40
2022/06/05 08:21:41;;;;;;;4.60;3.80;;;26.40;46.80;;;;;;5119499;27;20080;-42
2022/06/05 08:24:07;;;;;;;4.60;4.20;;;26.40;46.90;;;;;;5117821;28;20498;-42
2022/06/05 08:26:32;;;;;;;4.40;4.00;;;26.40;46.90;;;;;;5119526;28;20031;-46
2022/06/05 08:28:59;;;;;;;4.20;3.80;;;26.40;47.10;;;;;;5119582;28;20080;-43
2022/06/05 08:31:29;;;;;;;4.30;3.90;;;26.30;47.20;;;;;;5119565;28;20015;-42
2022/06/05 08:33:56;;;;;;;4.78;4.13;;;26.20;47.50;;;;;;5119703;28;20011;-45
2022/06/05 08:36:22;;;;;;;4.30;3.90;;;26.20;47.60;;;;;;5119133;28;20008;-48
2022/06/05 08:41:45;;;;;;;4.80;3.90;;;26.10;47.90;;;;;;5118641;28;20161;-46
2022/06/05 08:44:17;;;;;;;4.88;4.20;;;26.00;48.30;;;;;;5117813;28;20097;-46
2022/06/05 08:47:01;;;;;;;4.70;4.30;;;25.90;48.50;;;;;;5117228;28;20016;-46
2022/06/05 08:49:45;;;;;;;4.47;4.07;;;25.80;48.60;;;;;;5119299;28;20020;-46
2022/06/05 08:52:44;;;;;;;4.50;3.97;;;25.80;48.70;;;;;;5118200;28;20023;-48
2022/06/05 08:55:15;;;;;;;7.75;4.20;;;25.70;48.90;;;;;;5117710;28;20057;-44
2022/06/05 08:58:11;;;;;;;5.88;4.35;;;25.60;49.00;;;;;;5116723;28;20007;-46
2022/06/05 09:00:39;;;;;;;5.00;4.50;;;25.50;49.20;;;;;;5117013;28;20038;-44
2022/06/05 09:03:21;;;;;;;5.18;4.68;;;25.50;49.40;;;;;;5101537;28;20019;-43
2022/06/05 09:05:50;;;;;;;6.18;4.57;;;25.40;49.70;;;;;;5118127;28;20161;-43
2022/06/05 09:08:17;;;;;;;5.10;4.60;;;25.40;49.70;;;;;;5119568;28;20061;-43
2022/06/05 09:10:48;;;;;;;4.70;4.30;;;25.30;49.90;;;;;;5100404;28;20020;-43
2022/06/05 09:13:28;;;;;;;4.85;4.45;;;25.30;50.00;;;;;;5118477;28;20015;-45
2022/06/05 09:15:59;;;;;;;5.47;4.60;;;25.20;50.10;;;;;;5118772;28;20038;-43
2022/06/05 09:18:26;;;;;;;5.53;5.03;;;25.20;50.30;;;;;;5118690;28;20098;-43
2022/06/05 09:20:55;;;;;;;4.93;4.53;;;25.20;50.40;;;;;;5118377;28;20019;-47
2022/06/05 09:23:59;;;;;;;8.52;4.78;;;25.20;50.50;;;;;;5118388;28;20055;-43
2022/06/05 09:26:44;;;;;;;5.35;4.80;;;25.10;50.60;;;;;;5087138;28;20389;-43
2022/06/05 09:29:25;;;;;;;5.32;4.80;;;25.10;50.60;;;;;;5117629;28;20030;-50
2022/06/05 09:31:57;;;;;;;5.20;4.70;;;25.00;50.70;;;;;;5117932;28;20466;-43
2022/06/05 09:34:34;;;;;;;5.03;4.53;;;25.00;50.80;;;;;;5117424;28;20061;-41
2022/06/05 09:37:02;;;;;;;5.95;4.90;;;25.00;50.80;;;;;;5115843;28;20050;-43
2022/06/05 09:39:37;;;;;;;5.20;4.70;;;25.00;50.80;;;;;;5099588;28;20030;-45
2022/06/05 09:42:07;;;;;;;5.25;4.68;;;25.00;50.90;;;;;;5118214;28;20032;-45
2022/06/05 09:44:50;;;;;;;;;;;24.90;51.00;;;;;;5117436;28;20057;-44
2022/06/05 09:47:22;;;;;;;5.30;4.82;;;24.90;51.00;;;;;;5118246;27;19968;-45
2022/06/05 09:49:58;;;;;;;5.28;4.78;;;24.90;51.10;;;;;;5117223;28;20069;-43
2022/06/05 09:52:26;;;;;;;5.45;4.90;;;24.90;51.10;;;;;;5119346;28;20030;-49
2022/06/05 09:55:15;;;;;;;5.38;4.82;;;24.90;51.20;;;;;;5120967;28;20004;-49
2022/06/05 10:00:37;;;;;;;5.85;5.25;;;24.80;51.20;;;;;;5118066;28;20090;-44
2022/06/05 10:03:09;;;;;;;5.22;4.72;;;24.80;51.20;;;;;;5118251;28;20027;-43
2022/06/05 10:05:36;;;;;;;5.70;5.15;;;24.80;51.30;;;;;;5117990;28;20035;-46
2022/06/05 10:08:36;;;;;;;5.65;5.15;;;24.80;51.30;;;;;;5119949;28;20034;-43
2022/06/05 10:11:07;;;;;;;5.13;4.72;;;24.80;51.40;;;;;;5102736;28;20043;-42
2022/06/05 10:13:59;;;;;;;5.28;4.78;;;24.80;51.40;;;;;;5118212;28;20007;-47
2022/06/05 10:16:26;;;;;;;5.65;4.85;;;24.80;51.40;;;;;;5118047;28;20012;-44
2022/06/05 10:19:10;;;;;;;5.15;4.70;;;24.80;51.40;;;;;;5118682;28;20019;-42
2022/06/05 10:21:43;;;;;;;5.32;4.82;;;24.80;51.50;;;;;;5116782;28;20027;-46
2022/06/05 10:24:26;;;;;;;5.45;4.95;;;24.80;51.50;;;;;;5117386;28;20089;-47
2022/06/05 10:26:53;;;;;;;5.72;5.03;;;24.80;51.50;;;;;;5101991;28;20386;-43
2022/06/05 10:29:24;;;;;;;6.18;5.30;;;24.80;51.60;;;;;;5118387;28;20020;-50
2022/06/05 10:32:40;;;;;;;5.30;4.85;;;24.80;51.60;;;;;;5116383;28;20012;-45
2022/06/05 10:35:22;;;;;;;5.50;5.00;;;24.70;51.70;;;;;;5054886;28;20047;-46
2022/06/05 10:37:50;;;;;;;5.53;5.03;;;24.70;51.80;;;;;;5038369;28;20033;-45
2022/06/05 10:40:20;;;;;;;5.25;4.72;;;24.70;51.90;;;;;;5054004;28;20021;-43
2022/06/05 10:43:22;;;;;;;4.97;4.57;;;24.70;52.00;;;;;;5037779;28;20036;-44
2022/06/05 10:46:20;;;;;;;5.40;4.72;;;24.70;52.20;;;;;;5033698;28;20029;-46
2022/06/05 10:48:59;;;;;;;5.30;4.80;;;24.70;52.30;;;;;;5054305;28;20048;-47
2022/06/05 10:51:32;;;;;;;5.45;4.97;;;24.70;52.50;;;;;;5022205;28;20025;-43
2022/06/05 10:54:27;;;;;;;5.88;5.30;;;24.70;52.50;;;;;;5054116;28;20083;-47
2022/06/05 10:57:15;;;;;;;5.25;4.65;;;24.60;52.70;;;;;;5048596;28;20025;-43
2022/06/05 11:00:18;;;;;;;5.72;4.82;;;24.70;53.10;;;;;;5053647;28;20119;-47
2022/06/05 11:03:11;;;;;;;5.28;4.63;;;24.60;53.00;;;;;;5036828;28;20017;-48
2022/06/05 11:06:01;;;;;;;5.85;5.22;;;24.60;53.00;;;;;;5053316;28;20149;-44
2022/06/05 11:08:45;;;;;;;;;;;24.60;53.10;;;;;;5053876;28;20032;-44
2022/06/05 11:14:14;;;;;;;5.70;5.10;;;24.60;53.50;;;;;;5101849;28;20417;-45
2022/06/05 11:16:58;;;;;;;5.40;4.90;;;24.60;53.60;;;;;;5118551;28;20015;-49
2022/06/05 11:19:33;;;;;;;5.72;5.13;;;24.60;53.60;;;;;;5118311;28;20102;-45
2022/06/05 11:22:00;;;;;;;5.75;5.22;;;24.60;53.70;;;;;;5120019;28;20019;-48
2022/06/05 11:24:29;;;;;;;5.47;4.97;;;24.60;53.90;;;;;;5118333;28;20016;-48
2022/06/05 11:27:07;;;;;;;5.50;5.00;;;24.60;53.90;;;;;;5100063;28;20024;-47
2022/06/05 11:29:42;;;;;;;5.60;5.10;;;24.50;54.20;;;;;;5118462;28;20037;-42
2022/06/05 11:32:19;;;;;;;5.40;4.90;;;24.60;54.20;;;;;;5118380;28;20048;-42
2022/06/05 11:35:08;;;;;;;6.00;5.40;;;24.50;54.30;;;;;;5117403;28;20015;-42
2022/06/05 11:37:53;;;;;;;5.60;5.10;;;24.60;54.10;;;;;;5119478;28;20008;-42
2022/06/05 11:40:31;;;;;;;6.03;5.20;;;24.50;54.20;;;;;;5117007;28;20016;-46
2022/06/05 11:43:15;;;;;;;5.95;5.35;;;24.50;54.30;;;;;;5116539;28;20018;-44
2022/06/05 11:45:50;;;;;;;5.65;5.15;;;24.50;54.60;;;;;;5117791;28;20035;-48
2022/06/05 11:48:35;;;;;;;5.97;5.15;;;24.50;54.50;;;;;;5118089;28;20026;-44
2022/06/05 11:51:04;;;;;;;5.55;5.03;;;24.50;54.40;;;;;;5116919;28;20008;-43
2022/06/05 11:53:38;;;;;;;5.50;5.00;;;24.50;54.60;;;;;;5117711;28;20046;-42
2022/06/05 11:56:32;;;;;;;7.70;5.97;;;24.50;54.50;;;;;;5117030;28;20537;-42
2022/06/05 11:59:15;;;;;;;5.63;5.13;;;24.50;54.50;;;;;;5088734;28;20023;-44
2022/06/05 12:01:44;;;;;;;5.70;5.15;;;24.50;54.70;;;;;;5118471;28;20011;-41
2022/06/05 12:04:32;;;;;;;5.70;4.95;;;24.50;54.50;;;;;;5117797;28;20035;-46
2022/06/05 12:06:58;;;;;;;5.55;4.90;;;24.50;54.70;;;;;;5117681;28;20016;-45
2022/06/05 12:09:28;;;;;;;6.03;5.43;;;24.50;54.80;;;;;;5120337;28;20488;-46
2022/06/05 12:11:57;;;;;;;6.22;5.63;;;24.40;54.90;;;;;;5120834;28;20060;-48
2022/06/05 12:14:32;;;;;;;5.60;5.05;;;24.50;54.80;;;;;;5121992;28;20064;-44
2022/06/05 12:17:33;;;;;;;6.05;5.45;;;24.50;55.00;;;;;;5121062;28;20469;-45
2022/06/05 12:20:33;;;;;;;5.70;5.20;;;24.50;55.00;;;;;;5123180;28;20012;-43
2022/06/05 12:23:26;;;;;;;5.95;5.13;;;24.40;54.90;;;;;;5114721;28;20047;-46
2022/06/05 12:26:06;;;;;;;6.07;5.07;;;24.50;54.90;;;;;;5123694;28;20023;-43
2022/06/05 12:28:40;;;;;;;6.30;5.55;;;24.50;54.90;;;;;;5121548;28;20102;-48
2022/06/05 12:31:38;;;;;;;5.60;4.90;;;24.50;54.90;;;;;;5104904;28;20008;-47
2022/06/05 12:34:22;;;;;;;6.47;5.22;;;24.50;54.80;;;;;;5109618;28;20462;-48
2022/06/05 12:37:21;;;;;;;6.20;5.13;;;24.50;54.80;;;;;;5120006;28;20037;-48
2022/06/05 12:39:48;;;;;;;5.63;5.13;;;24.40;55.00;;;;;;5111232;28;20036;-43
2022/06/05 12:42:33;;;;;;;6.15;5.30;;;24.40;54.80;;;;;;5119180;28;20027;-44
2022/06/05 12:45:04;;;;;;;7.03;5.00;;;24.40;54.90;;;;;;5119939;28;20462;-45
2022/06/05 12:48:05;;;;;;;6.32;5.05;;;24.40;54.80;;;;;;5118707;28;20402;-44
2022/06/05 12:51:02;;;;;;;7.05;5.13;;;24.40;55.00;;;;;;5120146;28;20015;-49
2022/06/05 12:53:37;;;;;;;5.35;4.90;;;24.40;55.10;;;;;;5119246;28;20016;-46
2022/06/05 12:56:22;;;;;;;6.32;5.13;;;24.40;55.10;;;;;;5119657;28;20012;-45
2022/06/05 12:59:02;;;;;;;5.70;5.00;;;24.40;55.20;;;;;;5118968;28;20034;-48
2022/06/05 13:01:37;;;;;;;5.57;4.95;;;24.40;55.10;;;;;;5118438;28;20031;-43
2022/06/05 13:04:34;;;;;;;5.65;4.68;;;24.40;55.10;;;;;;5118550;28;20015;-49
2022/06/05 13:07:10;;;;;;;5.65;4.78;;;24.40;55.20;;;;;;5118553;28;20027;-49
2022/06/05 13:09:53;;;;;;;5.30;4.70;;;24.50;55.10;;;;;;5119565;28;20015;-46
2022/06/05 13:12:23;;;;;;;6.07;5.00;;;24.40;55.10;;;;;;5087037;28;20035;-48
2022/06/05 13:15:27;;;;;;;5.05;4.55;;;24.50;55.00;;;;;;5119046;28;20020;-46
2022/06/05 13:18:01;;;;;;;5.10;4.68;;;24.50;55.30;;;;;;5120517;27;20019;-48
2022/06/05 13:20:39;;;;;;;6.43;5.07;;;24.40;55.10;;;;;;5118291;28;20016;-43
2022/06/05 13:23:21;;;;;;;5.30;4.80;;;24.40;55.10;;;;;;5100722;28;20172;-44
2022/06/05 13:25:54;;;;;;;6.18;5.30;;;24.40;55.20;;;;;;5117010;28;20035;-46
2022/06/05 13:28:27;;;;;;;6.22;5.40;;;24.40;55.10;;;;;;5117832;28;20019;-47
2022/06/05 13:30:59;;;;;;;5.95;5.07;;;24.50;55.20;;;;;;5117795;28;20016;-46
2022/06/05 13:33:45;;;;;;;5.97;5.28;;;24.50;55.10;;;;;;5117335;28;20535;-46